»·PEaware :: N216AF PHJR-PHHN

N216AF :: PHJR-PHHN

FLIGHT INFORMATION

Flight Status: Arrived
Operator: Privately registered:
United States
More flights under this callsign
Pilot: Cooper L. (8467)
Aircraft: MOONEY M-20 201 202 205 220 ATS MSE
(M20P)
More flights by this aircraft type
Origin: PHJR Kalaeloa (John Rodgers Field)
United States
Destination: PHHN Hana
United States
More flights between these airports :: More routes between these airports
Route: CKH V15 OGG OPANA
File this flight plan on PilotEdge
Remarks:
Altitude:
(Current/Filed)
9,000ft
Speed:
(Current/Filed)
195kts
Departed: 04-Mar-18 12:23 PM
Arrived: 04-Mar-18 01:15 PM
Distance/Time
Traveled:
119nm/0:52
Distance/Time
To Go:
Arrived

Flight Plot

Page will automatically refresh every two minutes.

Flight plan parsing failed; only flown route is shown


Map Options




Map Legend


Flown Route
Filed Route
Departure Airport
Arrival Airport
Navaid (VOR, NDB)
Fix

Horizontal Profiles

Position Reports

Time Latitude Longitude Heading Altitude Ground
Speed
04-Mar-18 12:29 21.306898 -158.068693 236 23ft 27kts
04-Mar-18 12:30 21.290775 -158.087171 158 774ft 100kts
04-Mar-18 12:31 21.285653 -158.054115 92 1724ft 124kts
04-Mar-18 12:32 21.283586 -158.017264 92 2935ft 125kts
04-Mar-18 12:33 21.281462 -157.980418 92 4042ft 127kts
04-Mar-18 12:34 21.279253 -157.942597 92 5085ft 128kts
04-Mar-18 12:35 21.277020 -157.904582 91 6047ft 130kts
04-Mar-18 12:36 21.274743 -157.865949 92 6944ft 131kts
04-Mar-18 12:37 21.272424 -157.826746 92 7775ft 133kts
04-Mar-18 12:38 21.270054 -157.786809 92 8558ft 135kts
04-Mar-18 12:39 21.267548 -157.744766 92 8927ft 159kts
04-Mar-18 12:40 21.262434 -157.692845 102 8909ft 188kts
04-Mar-18 12:41 21.248638 -157.637074 103 8921ft 197kts
04-Mar-18 12:42 21.234422 -157.579751 103 8948ft 200kts
04-Mar-18 12:43 21.220085 -157.522005 103 8971ft 199kts
04-Mar-18 12:44 21.205861 -157.464786 103 8989ft 198kts
04-Mar-18 12:45 21.191914 -157.407656 101 8998ft 197kts
04-Mar-18 12:46 21.179192 -157.350865 101 8998ft 197kts
04-Mar-18 12:47 21.166407 -157.293936 101 9001ft 197kts
04-Mar-18 12:48 21.153876 -157.238236 101 9001ft 197kts
04-Mar-18 12:49 21.141000 -157.181090 101 9000ft 197kts
04-Mar-18 12:50 21.124825 -157.124840 106 9000ft 198kts
04-Mar-18 12:51 21.109207 -157.074223 106 9001ft 198kts
04-Mar-18 12:52 21.094140 -157.025402 106 9003ft 198kts
04-Mar-18 12:53 21.076864 -156.969479 107 9008ft 198kts
04-Mar-18 12:54 21.059484 -156.913294 107 9009ft 199kts
04-Mar-18 12:55 21.042152 -156.857337 107 9006ft 200kts
04-Mar-18 12:56 21.024673 -156.800982 106 9001ft 201kts
04-Mar-18 12:57 21.007094 -156.744376 106 8996ft 202kts
04-Mar-18 12:58 20.989368 -156.687359 106 8990ft 203kts
04-Mar-18 12:59 20.971645 -156.630425 106 8988ft 203kts
04-Mar-18 13:00 20.953881 -156.573415 107 8987ft 203kts
04-Mar-18 13:01 20.936129 -156.516504 106 8985ft 203kts
04-Mar-18 13:02 20.918345 -156.459302 107 8982ft 203kts
04-Mar-18 13:03 20.909739 -156.401664 80 8980ft 200kts
04-Mar-18 13:04 20.919044 -156.344275 79 8867ft 200kts
04-Mar-18 13:05 20.928592 -156.286332 80 8507ft 197kts
04-Mar-18 13:06 20.937860 -156.229490 79 7739ft 194kts
04-Mar-18 13:07 20.940342 -156.173120 99 6856ft 192kts
04-Mar-18 13:08 20.930525 -156.117583 99 5874ft 187kts
04-Mar-18 13:09 20.921041 -156.064276 99 4006ft 179kts
04-Mar-18 13:10 20.912321 -156.015478 98 3776ft 162kts
04-Mar-18 13:11 20.904001 -155.968930 99 3783ft 157kts
04-Mar-18 13:12 20.895978 -155.924339 99 3201ft 155kts
04-Mar-18 13:13 20.888618 -155.883158 98 2973ft 130kts
04-Mar-18 13:14 20.882082 -155.846598 99 2985ft 134kts
04-Mar-18 13:15 20.849478 -155.830048 173 2483ft 141kts
04-Mar-18 13:16 20.809921 -155.829684 180 2476ft 153kts
04-Mar-18 13:17 20.795700 -155.872388 269 2442ft 176kts
04-Mar-18 13:18 20.795571 -155.927301 270 1599ft 196kts
04-Mar-18 13:19 20.797829 -155.982749 286 684ft 170kts
04-Mar-18 13:20 20.807264 -156.026514 289 588ft 124kts
04-Mar-18 13:21 20.795629 -156.022253 83 164ft 64kts
04-Mar-18 13:22 20.794827 -156.015295 131 84ft 5kts
04-Mar-18 13:23 20.794666 -156.015040 93 85ft 0kts
04-Mar-18 13:24 20.794666 -156.015040 93 85ft 0kts
04-Mar-18 13:25 20.794666 -156.015040 93 85ft 0kts

Navigation Log

Ident Type
Flight plan parsing failed, navigation log unavailable